Northern Cambria, Pennsylvania
Current Conditions -  °F | °C
As of 5:35 PM on Saturday 25 Oct 2014 (Local Time) from KIDI Reporting Station
Scattered Clouds Scattered Clouds  
Wind Chill: 64°   Ceiling: Unl
Heat Index: 64°   Visibility: 10mi
Dew Point: 50°   Wind: 18mph
Humidity: 59%   Direction: 280°W
Pressure: 29.77"   Gusts: 25mph
Location:  40.6905°N, 78.7599°W
Report Text: KIDI 252135Z AUTO 28016G22KT 10SM SCT040 SCT049 18/10 A2977 RMK A01
Loading
Personal Weather Stations






























Interactive Weather Map
Tropical Storm Tracking
New forecast layout! Learn more

10-Day Weather Forecast

Advertisements
Track Severe Weather on mobile